Time;durP1;ratioP1;P1;durP2;ratioP2;P2;SDS_P1;SDS_P2;PMS_P1;PMS_P2;Temp;Humidity;BMP_temperature;BMP_pressure;BME280_temperature;BME280_humidity;BME280_pressure;Samples;Min_cycle;Max_cycle;Signal;HPM_P1;HPM_P2
2021/03/31 00:01:04;;;;;;;;;;;;;;;9.67;72.15;100773.06;5075586;28;19924;-63
2021/03/31 00:03:32;;;;;;;;;;;;;;;9.60;72.75;100771.22;5075807;28;19951;-62
2021/03/31 00:06:00;;;;;;;;;;;;;;;9.41;72.57;100770.81;5075575;28;19936;-63
2021/03/31 00:08:28;;;;;;;;;;;;;;;9.37;72.95;100771.56;5074876;28;19925;-62
2021/03/31 00:10:56;;;;;;;;;;;;;;;9.41;72.48;100775.91;5075722;28;19924;-62
2021/03/31 00:13:24;;;;;;;;;;;;;;;9.39;73.23;100761.41;5074139;28;20018;-63
2021/03/31 00:15:52;;;;;;;;;;;;;;;9.34;73.06;100768.97;5075596;28;19978;-63
2021/03/31 00:18:23;;;;;;;;;;;;;;;9.26;72.54;100762.00;5075335;28;20362;-62
2021/03/31 00:20:51;;;;;;;;;;;;;;;9.20;72.92;100752.53;5075190;28;19967;-63
2021/03/31 00:23:20;;;;;;;;;;;;;;;9.22;73.00;100755.94;5075177;28;19925;-63
2021/03/31 00:25:48;;;;;;;;;;;;;;;9.22;73.63;100753.41;5074970;28;19952;-63
2021/03/31 00:28:18;;;;;;;;;;;;;;;9.17;73.32;100747.34;5075335;28;19932;-63
2021/03/31 00:30:46;;;;;;;;;;;;;;;9.19;73.48;100745.69;5075006;28;19928;-62
2021/03/31 00:33:14;;;;;;;;;;;;;;;9.20;73.92;100744.88;5074900;28;19974;-62
2021/03/31 00:35:42;;;;;;;;;;;;;;;9.21;73.48;100746.56;5074942;28;19924;-62
2021/03/31 00:38:10;;;;;;;;;;;;;;;9.24;74.09;100746.66;5074884;28;19925;-63
2021/03/31 00:40:40;;;;;;;;;;;;;;;9.30;73.89;100751.91;5074798;28;19925;-63
2021/03/31 00:43:08;;;;;;;;;;;;;;;9.30;73.51;100749.34;5074821;28;19924;-62
2021/03/31 00:45:37;;;;;;;;;;;;;;;9.27;73.17;100746.72;5075063;28;19978;-63
2021/03/31 00:48:08;;;;;;;;;;;;;;;9.24;74.08;100746.66;5074804;28;19925;-63
2021/03/31 00:50:36;;;;;;;;;;;;;;;9.19;73.31;100745.69;5074597;28;20280;-63
2021/03/31 00:53:05;;;;;;;;;;;;;;;9.23;73.90;100747.50;5073361;28;19931;-62
2021/03/31 00:55:33;;;;;;;;;;;;;;;9.18;73.25;100738.91;5074863;28;20267;-63
2021/03/31 00:58:01;;;;;;;;;;;;;;;9.15;73.26;100735.41;5074507;28;19924;-63
2021/03/31 01:00:29;;;;;;;;;;;;;;;9.14;73.30;100738.81;5074517;28;19925;-63
2021/03/31 01:02:57;;;;;;;;;;;;;;;9.07;73.42;100735.22;5073616;28;20345;-63
2021/03/31 01:05:26;;;;;;;;;;;;;;;9.07;73.82;100739.50;5073508;28;19974;-63
2021/03/31 01:07:55;;;;;;;;;;;;;;;9.05;73.65;100734.34;5074422;28;19925;-62
2021/03/31 01:10:26;;;;;;;;;;;;;;;9.06;73.46;100738.63;5074342;28;20294;-62
2021/03/31 01:13:03;;;;;;;;;;;;;;;9.05;73.53;100738.56;5074210;28;19931;-62
2021/03/31 01:15:34;;;;;;;;;;;;;;;9.05;73.88;100744.53;5074340;28;20340;-62
2021/03/31 01:18:05;;;;;;;;;;;;;;;9.02;73.54;100743.63;5074277;28;20382;-62
2021/03/31 01:20:44;;;;;;;;;;;;;;;8.97;73.31;100746.06;5074549;28;20028;-63
2021/03/31 01:23:22;;;;;;;;;;;;;;;8.89;73.05;100742.47;5074194;28;19924;-63
2021/03/31 01:25:53;;;;;;;;;;;;;;;8.84;73.46;100749.13;5074282;28;19924;-62
2021/03/31 01:28:34;;;;;;;;;;;;;;;8.83;73.84;100742.31;5073062;28;19947;-62
2021/03/31 01:31:09;;;;;;;;;;;;;;;8.81;73.59;100743.09;5074168;28;20424;-63
2021/03/31 01:33:47;;;;;;;;;;;;;;;8.76;73.36;100737.91;5074273;28;19929;-62
2021/03/31 01:36:17;;;;;;;;;;;;;;;8.73;73.27;100737.84;5074337;28;20387;-62
2021/03/31 01:38:46;;;;;;;;;;;;;;;8.69;73.56;100744.53;5074003;28;20023;-62
2021/03/31 01:41:17;;;;;;;;;;;;;;;8.71;73.09;100736.94;5074269;28;19925;-63
2021/03/31 01:43:49;;;;;;;;;;;;;;;8.71;73.06;100726.75;5073974;28;19931;-63
2021/03/31 01:46:18;;;;;;;;;;;;;;;8.65;73.19;100734.25;5074054;28;20453;-63
2021/03/31 01:48:47;;;;;;;;;;;;;;;8.62;73.07;100724.00;5073923;28;19925;-62
2021/03/31 01:51:16;;;;;;;;;;;;;;;8.49;73.16;100730.50;5073888;28;19970;-62
2021/03/31 01:53:44;;;;;;;;;;;;;;;8.41;73.21;100736.22;5073736;28;20022;-62
2021/03/31 01:56:12;;;;;;;;;;;;;;;8.34;73.62;100729.25;5073808;28;19924;-63
2021/03/31 01:58:40;;;;;;;;;;;;;;;8.34;73.85;100729.25;5073844;28;19924;-63
2021/03/31 02:01:08;;;;;;;;;;;;;;;8.33;73.62;100727.50;5074093;28;19966;-63
2021/03/31 02:03:37;;;;;;;;;;;;;;;8.31;74.14;100724.06;5074248;28;19925;-63
2021/03/31 02:06:05;;;;;;;;;;;;;;;8.33;74.23;100724.97;5073728;28;20313;-63
2021/03/31 02:08:34;;;;;;;;;;;;;;;8.31;74.65;100724.06;5073706;28;19929;-63
2021/03/31 02:11:12;;;;;;;;;;;;;;;8.30;74.16;100727.47;5073770;28;19932;-62
2021/03/31 02:13:39;;;;;;;;;;;;;;;8.27;74.66;100727.38;5075314;28;19970;-62
2021/03/31 02:16:08;;;;;;;;;;;;;;;8.27;74.85;100728.25;5077632;28;19930;-63
2021/03/31 02:18:37;;;;;;;;;;;;;;;8.30;74.70;100723.22;5077559;28;19925;-63
2021/03/31 02:21:05;;;;;;;;;;;;;;;8.33;74.47;100722.44;5077540;28;20276;-62
2021/03/31 02:23:35;;;;;;;;;;;;;;;8.37;74.34;100721.69;5078032;28;19928;-62
2021/03/31 02:26:03;;;;;;;;;;;;;;;8.42;74.46;100727.75;5077790;28;19928;-62
2021/03/31 02:28:31;;;;;;;;;;;;;;;8.44;74.56;100726.13;5077477;28;19952;-63
2021/03/31 02:30:59;;;;;;;;;;;;;;;8.45;74.67;100725.28;5077368;28;19939;-63
2021/03/31 02:33:28;;;;;;;;;;;;;;;8.44;73.98;100726.13;5077405;28;20321;-63
2021/03/31 02:35:55;;;;;;;;;;;;;;;8.41;74.33;100726.91;5077245;28;19959;-63
2021/03/31 02:38:25;;;;;;;;;;;;;;;8.36;74.40;100727.59;5077713;28;19931;-62
2021/03/31 02:40:55;;;;;;;;;;;;;;;8.31;74.72;100735.13;5077155;28;19924;-63
2021/03/31 02:43:25;;;;;;;;;;;;;;;8.29;73.96;100721.50;5077363;28;19924;-62
2021/03/31 02:45:54;;;;;;;;;;;;;;;8.30;74.83;100712.19;5077103;28;19931;-62
2021/03/31 02:48:23;;;;;;;;;;;;;;;8.27;74.56;100718.06;5077362;28;20382;-62
2021/03/31 02:50:56;;;;;;;;;;;;;;;8.24;74.29;100712.00;5077070;28;19924;-62
2021/03/31 02:53:25;;;;;;;;;;;;;;;8.17;73.94;100717.75;5076865;28;19924;-63
2021/03/31 02:55:54;;;;;;;;;;;;;;;8.12;74.79;100727.81;5076922;28;20030;-62
2021/03/31 02:58:23;;;;;;;;;;;;;;;8.10;74.71;100724.38;5076873;28;19931;-62
2021/03/31 03:00:50;;;;;;;;;;;;;;;8.04;74.91;100724.19;5076767;28;19925;-62
2021/03/31 03:03:18;;;;;;;;;;;;;;;8.01;74.92;100730.06;5076709;28;20256;-62
2021/03/31 03:05:47;;;;;;;;;;;;;;;7.97;74.99;100720.63;5076981;28;19978;-63
2021/03/31 03:08:15;;;;;;;;;;;;;;;7.94;75.09;100728.19;5076709;28;19925;-62
2021/03/31 03:10:43;;;;;;;;;;;;;;;7.95;75.17;100718.88;5076599;28;20302;-63
2021/03/31 03:13:13;;;;;;;;;;;;;;;7.94;74.97;100720.56;5076788;28;19971;-63
2021/03/31 03:15:43;;;;;;;;;;;;;;;7.96;75.09;100721.47;5076506;28;19935;-62
2021/03/31 03:18:10;;;;;;;;;;;;;;;7.94;74.96;100730.72;5076796;28;20025;-62
2021/03/31 03:20:38;;;;;;;;;;;;;;;7.84;74.59;100726.25;5076466;28;20019;-63
2021/03/31 03:23:06;;;;;;;;;;;;;;;7.80;74.97;100724.41;5076394;28;19978;-62
2021/03/31 03:25:35;;;;;;;;;;;;;;;7.68;74.89;100723.25;5075361;28;19925;-63
2021/03/31 03:28:04;;;;;;;;;;;;;;;7.68;74.74;100721.53;5075634;28;19968;-63
2021/03/31 03:30:34;;;;;;;;;;;;;;;7.67;75.20;100722.38;5076500;28;19925;-62
2021/03/31 03:33:02;;;;;;;;;;;;;;;7.70;75.24;100719.88;5076138;28;20371;-63
2021/03/31 03:35:30;;;;;;;;;;;;;;;7.74;75.51;100715.78;5076066;28;19931;-62
2021/03/31 03:37:59;;;;;;;;;;;;;;;7.75;75.78;100720.88;5076121;28;19975;-63
2021/03/31 03:40:27;;;;;;;;;;;;;;;7.75;75.89;100717.50;5076362;28;20393;-62
2021/03/31 03:42:55;;;;;;;;;;;;;;;7.74;75.39;100714.09;5076052;28;19928;-62
2021/03/31 03:45:23;;;;;;;;;;;;;;;7.78;76.11;100720.97;5075894;28;20294;-63
2021/03/31 03:47:52;;;;;;;;;;;;;;;7.81;76.13;100704.94;5075887;28;19928;-63
2021/03/31 03:50:20;;;;;;;;;;;;;;;7.80;76.03;100714.25;5075840;28;19956;-63
2021/03/31 03:52:48;;;;;;;;;;;;;;;7.78;75.86;100710.81;5075729;28;19955;-62
2021/03/31 03:55:17;;;;;;;;;;;;;;;7.77;75.50;100719.28;5075727;28;20386;-62
2021/03/31 03:57:45;;;;;;;;;;;;;;;7.78;76.05;100718.44;5076037;28;19963;-62
2021/03/31 04:00:14;;;;;;;;;;;;;;;7.70;75.95;100712.28;5075641;28;19956;-62
2021/03/31 04:02:42;;;;;;;;;;;;;;;7.59;75.54;100713.66;5075932;28;19924;-62
2021/03/31 04:05:11;;;;;;;;;;;;;;;7.50;75.26;100717.63;5075521;28;20216;-63
2021/03/31 04:07:39;;;;;;;;;;;;;;;7.46;75.91;100719.25;5075493;28;19932;-62
2021/03/31 04:10:07;;;;;;;;;;;;;;;7.45;75.38;100717.50;5075525;28;19925;-62
2021/03/31 04:12:36;;;;;;;;;;;;;;;7.46;75.97;100721.78;5075884;28;19924;-62
2021/03/31 04:15:06;;;;;;;;;;;;;;;7.43;75.98;100722.56;5075937;28;20370;-62
2021/03/31 04:17:35;;;;;;;;;;;;;;;7.35;75.64;100723.13;5075287;28;20016;-62
2021/03/31 04:20:04;;;;;;;;;;;;;;;7.26;75.85;100723.75;5075882;28;19925;-62
2021/03/31 04:22:33;;;;;;;;;;;;;;;7.19;75.56;100726.06;5075195;28;19925;-62
2021/03/31 04:25:01;;;;;;;;;;;;;;;7.14;76.04;100723.38;5074778;28;20405;-62
2021/03/31 04:27:30;;;;;;;;;;;;;;;7.10;76.31;100731.69;5075038;28;19924;-63
2021/03/31 04:29:58;;;;;;;;;;;;;;;7.07;76.07;100733.31;5075075;28;20401;-62
2021/03/31 04:32:27;;;;;;;;;;;;;;;7.09;76.25;100731.66;5074949;28;19925;-62
2021/03/31 04:34:54;;;;;;;;;;;;;;;7.07;76.61;100736.72;5074965;28;19924;-62
2021/03/31 04:37:22;;;;;;;;;;;;;;;7.08;76.70;100742.66;5074729;28;19924;-63
2021/03/31 04:39:51;;;;;;;;;;;;;;;7.10;76.13;100741.00;5075232;28;19928;-63
2021/03/31 04:42:18;;;;;;;;;;;;;;;7.13;76.86;100743.63;5074781;28;19928;-63
2021/03/31 04:44:46;;;;;;;;;;;;;;;7.09;76.69;100742.69;5075097;28;20263;-63
2021/03/31 04:47:14;;;;;;;;;;;;;;;7.09;76.79;100744.34;5073518;28;19924;-63
2021/03/31 04:49:58;;;;;;;;;;;;;;;7.14;76.46;100738.63;5074772;28;19924;-62
2021/03/31 04:52:28;;;;;;;;;;;;;;;7.20;77.06;100737.91;5074580;28;19925;-62
2021/03/31 04:54:57;;;;;;;;;;;;;;;7.24;76.76;100739.75;5074621;28;19982;-62
2021/03/31 04:57:25;;;;;;;;;;;;;;;7.32;76.64;100738.28;5074509;28;19924;-63
2021/03/31 04:59:52;;;;;;;;;;;;;;;7.37;76.11;100746.88;5074821;28;20024;-63
2021/03/31 05:02:20;;;;;;;;;;;;;;;7.39;76.56;100738.50;5074578;28;20283;-62
2021/03/31 05:04:48;;;;;;;;;;;;;;;7.46;76.69;100739.56;5074342;28;19925;-62
2021/03/31 05:07:16;;;;;;;;;;;;;;;7.50;76.42;100736.28;5074339;28;19942;-62
2021/03/31 05:09:47;;;;;;;;;;;;;;;7.55;76.16;100734.72;5074402;28;19924;-62
2021/03/31 05:12:17;;;;;;;;;;;;;;;7.65;76.42;100738.38;5074209;28;19925;-62
2021/03/31 05:14:45;;;;;;;;;;;;;;;7.75;76.07;100740.38;5074227;28;20379;-62
2021/03/31 05:17:12;;;;;;;;;;;;;;;7.84;76.14;100736.41;5074156;28;20382;-62
2021/03/31 05:19:40;;;;;;;;;;;;;;;7.95;75.93;100740.09;5074194;28;19928;-63
2021/03/31 05:22:08;;;;;;;;;;;;;;;8.02;76.28;100741.97;5074170;28;20022;-62
2021/03/31 05:24:36;;;;;;;;;;;;;;;8.11;75.65;100737.09;5073162;28;19951;-62
2021/03/31 05:27:04;;;;;;;;;;;;;;;8.20;76.08;100740.72;5074414;28;20329;-62
2021/03/31 05:29:33;;;;;;;;;;;;;;;8.31;75.98;100749.50;5074258;28;19931;-63
2021/03/31 05:32:01;;;;;;;;;;;;;;;8.41;75.81;100742.16;5074102;28;19924;-62
2021/03/31 05:34:28;;;;;;;;;;;;;;;8.53;75.22;100747.56;5073980;28;19928;-62
2021/03/31 05:36:56;;;;;;;;;;;;;;;8.65;75.23;100747.84;5073955;28;19929;-62
2021/03/31 05:39:24;;;;;;;;;;;;;;;8.76;75.55;100737.91;5073982;28;19924;-62
2021/03/31 05:41:52;;;;;;;;;;;;;;;8.87;75.91;100739.03;5073926;28;19925;-62
2021/03/31 05:44:20;;;;;;;;;;;;;;;8.94;75.51;100735.81;5073906;28;19925;-62
2021/03/31 05:46:51;;;;;;;;;;;;;;;9.04;75.75;100737.72;5073933;28;19925;-62
2021/03/31 05:49:19;;;;;;;;;;;;;;;9.16;74.83;100738.00;5072145;28;19947;-63
2021/03/31 05:51:47;;;;;;;;;;;;;;;9.30;74.67;100738.28;5074124;28;19931;-63
2021/03/31 05:54:15;;;;;;;;;;;;;;;9.41;74.64;100729.16;5073667;28;20370;-63
2021/03/31 05:56:43;;;;;;;;;;;;;;;9.55;74.45;100737.13;5074060;28;19986;-63
2021/03/31 05:59:11;;;;;;;;;;;;;;;9.68;73.97;100724.63;5073714;28;19935;-63
2021/03/31 06:01:40;;;;;;;;;;;;;;;9.79;74.01;100737.59;5073764;28;19925;-62
2021/03/31 06:04:09;;;;;;;;;;;;;;;9.86;73.21;100739.44;5073648;28;19994;-62
2021/03/31 06:06:36;;;;;;;;;;;;;;;9.97;73.42;100732.84;5073722;28;19924;-62
2021/03/31 06:09:06;;;;;;;;;;;;;;;10.09;73.27;100733.94;5073656;28;20402;-63
2021/03/31 06:11:47;;;;;;;;;;;;;;;10.26;73.15;100731.72;5073938;28;19939;-63
2021/03/31 06:14:15;;;;;;;;;;;;;;;10.44;72.50;100726.91;5073822;28;20400;-63
2021/03/31 06:16:46;;;;;;;;;;;;;;;10.49;72.31;100722.75;5073649;28;20272;-63
2021/03/31 06:19:19;;;;;;;;;;;;;;;10.60;72.73;100731.44;5073586;28;19931;-63
2021/03/31 06:21:59;;;;;;;;;;;;;;;10.77;72.13;100730.00;5073583;28;19960;-62
2021/03/31 06:24:31;;;;;;;;;;;;;;;10.99;71.93;100731.16;5073359;28;19932;-62
2021/03/31 06:26:59;;;;;;;;;;;;;;;11.16;71.99;100726.28;5073794;28;19932;-62
2021/03/31 06:29:36;;;;;;;;;;;;;;;11.32;71.24;100728.22;5073523;28;19924;-62
2021/03/31 06:32:15;;;;;;;;;;;;;;;11.42;71.12;100732.63;5073523;28;19925;-63
2021/03/31 06:34:54;;;;;;;;;;;;;;;11.53;71.29;100725.94;5073488;28;20027;-63
2021/03/31 06:37:24;;;;;;;;;;;;;;;11.69;71.02;100725.31;5073551;28;19925;-62
2021/03/31 06:39:52;;;;;;;;;;;;;;;11.83;70.26;100725.47;5073358;28;19928;-63
2021/03/31 06:42:21;;;;;;;;;;;;;;;11.96;70.28;100725.63;5073441;28;19932;-62
2021/03/31 06:44:57;;;;;;;;;;;;;;;12.09;69.99;100724.03;5073597;28;19971;-63
2021/03/31 06:47:29;;;;;;;;;;;;;;;12.23;69.55;100724.16;5073462;28;19924;-62
2021/03/31 06:49:59;;;;;;;;;;;;;;;12.38;69.35;100716.63;5073447;28;19929;-63
2021/03/31 06:52:30;;;;;;;;;;;;;;;12.50;68.82;100716.75;5072130;28;19966;-62
2021/03/31 06:55:03;;;;;;;;;;;;;;;12.57;68.69;100716.78;5073357;28;19964;-63
2021/03/31 06:57:31;;;;;;;;;;;;;;;12.61;68.50;100721.09;5073282;28;19974;-62
2021/03/31 07:00:01;;;;;;;;;;;;;;;12.64;68.10;100713.41;5073753;28;19974;-63
2021/03/31 07:02:30;;;;;;;;;;;;;;;12.77;68.18;100709.25;5077320;28;19948;-63
2021/03/31 07:04:58;;;;;;;;;;;;;;;12.88;68.01;100707.63;5076680;28;19991;-63
2021/03/31 07:07:32;;;;;;;;;;;;;;;13.05;67.90;100711.13;5076745;28;19925;-63
2021/03/31 07:10:08;;;;;;;;;;;;;;;13.20;67.53;100720.63;5076668;28;20003;-63
2021/03/31 07:12:42;;;;;;;;;;;;;;;13.35;67.15;100721.59;5076693;28;19924;-63
2021/03/31 07:15:11;;;;;;;;;;;;;;;13.52;66.98;100713.09;5076471;28;19925;-63
2021/03/31 07:17:39;;;;;;;;;;;;;;;13.64;66.61;100718.28;5076416;28;20348;-62
2021/03/31 07:20:08;;;;;;;;;;;;;;;13.81;66.34;100711.50;5076755;28;19928;-62
2021/03/31 07:22:37;;;;;;;;;;;;;;;13.93;65.99;100707.25;5076402;28;19931;-62
2021/03/31 07:25:05;;;;;;;;;;;;;;;13.98;65.48;100697.84;5076080;28;19924;-62
2021/03/31 07:27:34;;;;;;;;;;;;;;;14.08;65.03;100698.72;5076306;28;19938;-62
2021/03/31 07:30:07;;;;;;;;;;;;;;;14.20;64.78;100700.44;5076380;28;19950;-62
2021/03/31 07:32:41;;;;;;;;;;;;;;;14.40;64.64;100701.31;5076313;28;19963;-62
2021/03/31 07:35:10;;;;;;;;;;;;;;;14.55;64.29;100693.63;5076399;28;19932;-62
2021/03/31 07:37:39;;;;;;;;;;;;;;;14.67;64.06;100694.47;5076155;28;19935;-62
2021/03/31 07:40:08;;;;;;;;;;;;;;;14.71;63.60;100691.03;5076040;28;19924;-62
2021/03/31 07:42:37;;;;;;;;;;;;;;;14.88;63.57;100688.44;5076265;28;19925;-62
2021/03/31 07:45:08;;;;;;;;;;;;;;;15.05;63.32;100675.53;5075987;28;19925;-62
2021/03/31 07:47:36;;;;;;;;;;;;;;;15.11;62.56;100696.09;5075866;28;19951;-62
2021/03/31 07:50:07;;;;;;;;;;;;;;;15.26;62.20;100680.63;5075913;28;19931;-62
2021/03/31 07:52:45;;;;;;;;;;;;;;;15.40;62.17;100681.44;5075737;28;19924;-62
2021/03/31 07:55:27;;;;;;;;;;;;;;;15.58;61.41;100678.78;5076014;28;20390;-62
2021/03/31 07:58:07;;;;;;;;;;;;;;;15.60;61.48;100677.06;5076389;28;19928;-62
2021/03/31 08:00:52;;;;;;;;;;;;;;;15.84;61.27;100676.06;5074514;28;20393;-62
2021/03/31 08:03:21;;;;;;;;;;;;;;;16.14;60.96;100677.59;5075644;28;19956;-62
2021/03/31 08:05:59;;;;;;;;;;;;;;;16.33;60.15;100676.59;5075513;28;19924;-63
2021/03/31 08:08:27;;;;;;;;;;;;;;;16.30;59.76;100677.47;5075509;28;19931;-63
2021/03/31 08:10:56;;;;;;;;;;;;;;;16.28;59.43;100674.06;5075041;28;19971;-62
2021/03/31 08:13:27;;;;;;;;;;;;;;;16.30;59.18;100671.44;5075357;28;19956;-62
2021/03/31 08:15:56;;;;;;;;;;;;;;;16.43;58.95;100667.91;5075399;28;20267;-62
2021/03/31 08:18:24;;;;;;;;;;;;;;;16.54;58.66;100669.56;5075323;28;19925;-62
2021/03/31 08:20:53;;;;;;;;;;;;;;;16.76;58.75;100665.06;5075374;28;19934;-62
2021/03/31 08:23:36;;;;;;;;;;;;;;;16.85;57.99;100664.94;5075255;28;19925;-62
2021/03/31 08:26:19;;;;;;;;;;;;;;;16.89;57.97;100664.06;5066842;28;19925;-62
2021/03/31 08:28:48;;;;;;;;;;;;;;;17.08;57.91;100667.28;5074984;28;20007;-62
2021/03/31 08:31:20;;;;;;;;;;;;;;;17.29;57.46;100655.00;5075067;28;19970;-62
2021/03/31 08:33:48;;;;;;;;;;;;;;;17.27;56.34;100659.31;5075000;28;19931;-62
2021/03/31 08:36:16;;;;;;;;;;;;;;;17.30;56.62;100660.97;5075061;28;19932;-62
2021/03/31 08:38:49;;;;;;;;;;;;;;;17.50;56.82;100655.56;5074910;28;20003;-62
2021/03/31 08:41:17;;;;;;;;;;;;;;;17.63;56.44;100644.25;5075054;28;19924;-62
2021/03/31 08:43:46;;;;;;;;;;;;;;;17.71;55.96;100647.56;5074760;28;19925;-62
2021/03/31 08:46:28;;;;;;;;;;;;;;;17.84;55.87;100644.81;5075127;28;19971;-62
2021/03/31 08:48:55;;;;;;;;;;;;;;;18.07;56.09;100634.97;5074764;28;19924;-63
2021/03/31 08:51:23;;;;;;;;;;;;;;;18.10;55.93;100639.22;5074583;28;19938;-63
2021/03/31 08:53:52;;;;;;;;;;;;;;;18.12;55.84;100640.06;5074544;28;19994;-63
2021/03/31 08:56:20;;;;;;;;;;;;;;;18.32;55.61;100639.72;5074488;28;19924;-63
2021/03/31 08:58:50;;;;;;;;;;;;;;;18.45;55.25;100629.13;5074582;28;19924;-62
2021/03/31 09:01:24;;;;;;;;;;;;;;;18.55;54.98;100630.72;5074492;28;19928;-62
2021/03/31 09:04:09;;;;;;;;;;;;;;;18.68;54.48;100631.34;5074840;28;19952;-63
2021/03/31 09:06:37;;;;;;;;;;;;;;;18.78;54.38;100629.44;5074507;28;19932;-63
2021/03/31 09:09:06;;;;;;;;;;;;;;;18.79;54.25;100631.16;5074317;28;19924;-71
2021/03/31 09:11:34;;;;;;;;;;;;;;;18.87;53.94;100634.44;5074064;28;20366;-71
2021/03/31 09:14:13;;;;;;;;;;;;;;;18.98;53.49;100622.16;5074448;28;19936;-70
2021/03/31 09:16:48;;;;;;;;;;;;;;;19.10;53.22;100625.34;5074087;28;20011;-70
2021/03/31 09:19:29;;;;;;;;;;;;;;;19.12;52.61;100622.75;5074089;28;19971;-70
2021/03/31 09:21:57;;;;;;;;;;;;;;;19.13;52.55;100627.00;5073924;28;20444;-71
2021/03/31 09:24:27;;;;;;;;;;;;;;;19.19;52.79;100619.13;5073250;28;19928;-71
2021/03/31 09:26:56;;;;;;;;;;;;;;;19.30;52.53;100617.16;5074149;28;20018;-71
2021/03/31 09:29:24;;;;;;;;;;;;;;;19.58;52.69;100612.28;5074086;28;19932;-70
2021/03/31 09:31:53;;;;;;;;;;;;;;;19.84;52.52;100605.59;5074392;28;19947;-70
2021/03/31 09:34:34;;;;;;;;;;;;;;;19.93;51.13;100599.34;5074336;28;20297;-70
2021/03/31 09:37:03;;;;;;;;;;;;;;;19.86;50.66;100601.25;5073796;28;19935;-71
2021/03/31 09:39:43;;;;;;;;;;;;;;;20.04;50.28;100603.38;5073966;28;19928;-70
2021/03/31 09:42:16;;;;;;;;;;;;;;;20.21;50.19;100599.50;5074305;28;19987;-70
2021/03/31 09:44:45;;;;;;;;;;;;;;;20.30;49.90;100594.16;5074016;28;19924;-70
2021/03/31 09:47:14;;;;;;;;;;;;;;;20.43;50.11;100587.75;5073912;28;20293;-71
2021/03/31 09:49:44;;;;;;;;;;;;;;;20.57;49.44;100588.22;5073962;28;19929;-71
2021/03/31 09:52:12;;;;;;;;;;;;;;;20.77;49.55;100583.34;5073949;28;19950;-70
2021/03/31 09:54:44;;;;;;;;;;;;;;;20.86;49.21;100574.44;5073840;28;19925;-71
2021/03/31 09:57:12;;;;;;;;;;;;;;;20.83;48.68;100570.19;5073896;28;19928;-71
2021/03/31 09:59:40;;;;;;;;;;;;;;;20.98;48.78;100574.94;5073988;28;19924;-71
2021/03/31 10:02:09;;;;;;;;;;;;;;;21.14;49.13;100571.03;5072953;28;19924;-70
2021/03/31 10:04:38;;;;;;;;;;;;;;;21.28;48.97;100561.06;5073707;28;20000;-71
2021/03/31 10:07:07;;;;;;;;;;;;;;;21.36;48.81;100561.72;5073741;28;20404;-70
2021/03/31 10:09:39;;;;;;;;;;;;;;;21.42;48.71;100562.41;5073689;28;19994;-70
2021/03/31 10:12:28;;;;;;;;;;;;;;;21.54;48.17;100560.28;5073977;28;19924;-71
2021/03/31 10:14:57;;;;;;;;;;;;;;;21.60;47.71;100560.09;5073563;28;19932;-71
2021/03/31 10:17:25;;;;;;;;;;;;;;;21.60;47.51;100549.69;5073609;28;20000;-71
2021/03/31 10:19:53;;;;;;;;;;;;;;;21.63;46.66;100551.34;5073669;28;20024;-71
2021/03/31 10:22:29;;;;;;;;;;;;;;;21.70;47.06;100540.72;5073808;28;19959;-71
2021/03/31 10:25:23;;;;;;;;;;;;;;;21.94;47.90;100544.28;5073384;28;20386;-71
2021/03/31 10:28:11;;;;;;;;;;;;;;;22.10;47.21;100540.25;5073588;28;19932;-71
2021/03/31 10:31:13;;;;;;;;;;;;;;;22.11;46.51;100541.97;5073550;28;19930;-71
2021/03/31 10:34:02;;;;;;;;;;;;;;;22.10;46.19;100532.44;5074587;28;19928;-71
2021/03/31 10:36:44;;;;;;;;;;;;;;;22.15;46.16;100530.53;5077456;28;19932;-71
2021/03/31 10:47:50;;;;;;;;;;;;;;;22.30;44.32;100524.81;5076942;28;20018;-71
2021/03/31 10:50:20;;;;;;;;;;;;;;;22.35;44.74;100522.91;5077127;28;19928;-71
2021/03/31 10:52:49;;;;;;;;;;;;;;;22.57;44.75;100525.59;5076918;28;20404;-71
2021/03/31 10:55:18;;;;;;;;;;;;;;;22.62;44.58;100519.38;5076806;28;19960;-71
2021/03/31 10:57:46;;;;;;;;;;;;;;;22.74;44.76;100514.59;5076775;28;20344;-71
2021/03/31 11:00:14;;;;;;;;;;;;;;;22.95;44.69;100508.59;5077138;28;20378;-71
2021/03/31 11:02:42;;;;;;;;;;;;;;;23.00;44.19;100504.03;5077040;28;19924;-71
2021/03/31 11:05:10;;;;;;;;;;;;;;;22.91;43.38;100501.81;5076714;28;19986;-71
2021/03/31 11:07:38;;;;;;;;;;;;;;;22.89;43.46;100494.03;5076634;28;19966;-71
2021/03/31 11:10:07;;;;;;;;;;;;;;;23.04;43.57;100495.19;5076589;28;20329;-71
2021/03/31 11:12:44;;;;;;;;;;;;;;;23.19;44.13;100481.59;5076609;28;20007;-71
2021/03/31 11:15:15;;;;;;;;;;;;;;;23.30;44.04;100487.22;5076402;28;19932;-71
2021/03/31 11:17:47;;;;;;;;;;;;;;;23.37;43.67;100486.09;5076533;28;19959;-71
2021/03/31 11:20:29;;;;;;;;;;;;;;;23.42;43.19;100486.75;5076405;28;19925;-71
2021/03/31 11:28:21;;;;;;;;;;;;;;;23.26;43.24;100472.63;5076366;28;19924;-71
2021/03/31 11:30:54;;;;;;;;;;;;;;;23.22;42.90;100468.44;5076554;28;19936;-71
2021/03/31 11:33:22;;;;;;;;;;;;;;;23.27;42.99;100461.28;5076166;28;19956;-71
2021/03/31 11:35:50;;;;;;;;;;;;;;;23.22;42.83;100464.09;5076432;28;20378;-71
2021/03/31 11:38:18;;;;;;;;;;;;;;;23.30;43.11;100466.34;5076112;28;19924;-71
2021/03/31 11:40:48;;;;;;;;;;;;;;;23.37;43.17;100462.63;5076176;28;19925;-71
2021/03/31 11:43:17;;;;;;;;;;;;;;;23.30;42.69;100455.94;5076272;28;19926;-71
2021/03/31 11:45:47;;;;;;;;;;;;;;;23.25;42.77;100455.31;5075168;28;20289;-71
2021/03/31 11:48:14;;;;;;;;;;;;;;;23.38;43.34;100448.69;5075904;28;19929;-71
2021/03/31 11:50:42;;;;;;;;;;;;;;;23.38;43.02;100451.31;5075863;28;19931;-71
2021/03/31 11:53:10;;;;;;;;;;;;;;;23.47;43.01;100443.09;5076064;28;19986;-71
2021/03/31 11:55:39;;;;;;;;;;;;;;;23.57;43.08;100436.59;5075685;28;19943;-71
2021/03/31 11:58:06;;;;;;;;;;;;;;;23.77;42.62;100438.38;5075767;28;19924;-71
2021/03/31 12:00:36;;;;;;;;;;;;;;;23.86;42.51;100433.63;5075644;28;19924;-70
2021/03/31 12:03:05;;;;;;;;;;;;;;;23.94;42.55;100428.94;5076159;28;20374;-71
2021/03/31 12:05:33;;;;;;;;;;;;;;;23.84;42.06;100427.63;5075886;28;19935;-71
2021/03/31 12:08:01;;;;;;;;;;;;;;;23.88;42.25;100423.97;5075800;28;19924;-71
2021/03/31 12:10:28;;;;;;;;;;;;;;;24.03;42.41;100422.44;5075560;28;19925;-70
2021/03/31 12:12:56;;;;;;;;;;;;;;;24.05;41.38;100409.31;5075395;28;19928;-71
2021/03/31 12:15:24;;;;;;;;;;;;;;;23.99;41.25;100408.69;5075296;28;19931;-71
2021/03/31 12:17:52;;;;;;;;;;;;;;;23.99;41.33;100406.06;5075851;28;19924;-70
2021/03/31 12:20:21;;;;;;;;;;;;;;;24.03;41.42;100396.38;5075579;28;20015;-70
2021/03/31 12:22:49;;;;;;;;;;;;;;;23.97;41.74;100391.44;5075266;28;19978;-70
2021/03/31 12:25:17;;;;;;;;;;;;;;;24.06;41.94;100390.16;5074975;28;20015;-70
2021/03/31 12:27:47;;;;;;;;;;;;;;;24.07;41.40;100384.06;5075207;28;19924;-70
2021/03/31 12:30:15;;;;;;;;;;;;;;;24.11;41.67;100372.56;5075434;28;19939;-70
2021/03/31 12:32:43;;;;;;;;;;;;;;;24.23;41.48;100372.03;5075462;28;19928;-70
2021/03/31 12:35:11;;;;;;;;;;;;;;;24.21;40.66;100368.66;5075154;28;20366;-72
2021/03/31 12:37:40;;;;;;;;;;;;;;;24.22;40.99;100365.97;5074884;28;19931;-70
2021/03/31 12:40:08;;;;;;;;;;;;;;;24.37;41.30;100364.41;5075249;28;19972;-72
2021/03/31 12:42:36;;;;;;;;;;;;;;;24.33;40.63;100357.66;5074865;28;19978;-72
2021/03/31 12:45:05;;;;;;;;;;;;;;;24.39;40.87;100357.34;5074838;28;19925;-72
2021/03/31 12:47:34;;;;;;;;;;;;;;;24.42;40.62;100346.78;5074745;28;19928;-72
2021/03/31 12:50:02;;;;;;;;;;;;;;;24.42;40.47;100350.25;5074693;28;19954;-72
2021/03/31 12:52:32;;;;;;;;;;;;;;;24.49;40.40;100342.97;5073460;28;20329;-72
2021/03/31 12:55:02;;;;;;;;;;;;;;;24.52;40.27;100340.22;5074651;28;20027;-72
2021/03/31 12:57:31;;;;;;;;;;;;;;;24.67;40.53;100342.91;5074709;28;19924;-72
2021/03/31 12:59:59;;;;;;;;;;;;;;;24.74;40.26;100338.25;5074675;28;20329;-72
2021/03/31 13:02:48;;;;;;;;;;;;;;;24.80;40.10;100331.91;5073555;28;19924;-72
2021/03/31 13:05:16;;;;;;;;;;;;;;;24.53;39.78;100328.81;5074324;28;20383;-72
2021/03/31 13:07:44;;;;;;;;;;;;;;;24.54;39.88;100323.56;5074638;28;20360;-72
2021/03/31 13:10:32;;;;;;;;;;;;;;;24.53;39.87;100315.78;5074300;28;19959;-72